sensor_id;sensor_type;location;lat;lon;timestamp;pressure;altitude;pressure_sealevel;temperature;humidity
14041;BME280;7095;51.388;6.196;2023-04-25T00:00:34;54887.06;;;-145.32;100.00
14041;BME280;7095;51.388;6.196;2023-04-25T00:03:03;54851.25;;;-145.32;100.00
14041;BME280;7095;51.388;6.196;2023-04-25T00:05:33;54871.16;;;-145.32;100.00
14041;BME280;7095;51.388;6.196;2023-04-25T00:08:04;54889.03;;;-145.32;100.00
14041;BME280;7095;51.388;6.196;2023-04-25T00:10:34;54879.09;;;-145.32;100.00
14041;BME280;7095;51.388;6.196;2023-04-25T00:13:02;54889.03;;;-145.32;100.00
14041;BME280;7095;51.388;6.196;2023-04-25T00:15:31;54887.06;;;-145.32;100.00
14041;BME280;7095;51.388;6.196;2023-04-25T00:17:59;54851.25;;;-145.32;100.00
14041;BME280;7095;51.388;6.196;2023-04-25T00:20:28;54827.38;;;-145.32;100.00
14041;BME280;7095;51.388;6.196;2023-04-25T00:22:57;54902.97;;;-145.32;100.00
14041;BME280;7095;51.388;6.196;2023-04-25T00:25:25;54843.28;;;-145.32;100.00
14041;BME280;7095;51.388;6.196;2023-04-25T00:27:55;54841.31;;;-145.32;100.00
14041;BME280;7095;51.388;6.196;2023-04-25T00:30:23;54847.28;;;-145.32;100.00
14041;BME280;7095;51.388;6.196;2023-04-25T00:32:54;54773.69;;;-145.32;100.00
14041;BME280;7095;51.388;6.196;2023-04-25T00:35:23;54755.78;;;-145.32;100.00
14041;BME280;7095;51.388;6.196;2023-04-25T00:37:51;54775.69;;;-145.32;100.00
14041;BME280;7095;51.388;6.196;2023-04-25T00:40:20;54783.63;;;-145.32;100.00
14041;BME280;7095;51.388;6.196;2023-04-25T00:42:49;54819.44;;;-145.32;100.00
14041;BME280;7095;51.388;6.196;2023-04-25T00:45:21;54861.19;;;-145.32;100.00
14041;BME280;7095;51.388;6.196;2023-04-25T00:47:49;54891.03;;;-145.32;100.00
14041;BME280;7095;51.388;6.196;2023-04-25T00:50:18;54918.88;;;-145.32;100.00
14041;BME280;7095;51.388;6.196;2023-04-25T00:52:46;54918.88;;;-145.32;100.00
14041;BME280;7095;51.388;6.196;2023-04-25T00:55:15;54986.50;;;-145.32;100.00
14041;BME280;7095;51.388;6.196;2023-04-25T00:57:45;54950.69;;;-145.32;100.00
14041;BME280;7095;51.388;6.196;2023-04-25T01:00:14;54976.56;;;-145.32;100.00
14041;BME280;7095;51.388;6.196;2023-04-25T01:02:47;54962.63;;;-145.32;100.00
14041;BME280;7095;51.388;6.196;2023-04-25T01:05:15;54930.81;;;-145.32;100.00
14041;BME280;7095;51.388;6.196;2023-04-25T01:07:45;54934.78;;;-145.32;100.00
14041;BME280;7095;51.388;6.196;2023-04-25T01:10:14;54914.91;;;-145.32;100.00
14041;BME280;7095;51.388;6.196;2023-04-25T01:12:42;54916.88;;;-145.32;100.00
14041;BME280;7095;51.388;6.196;2023-04-25T01:15:11;54982.53;;;-145.32;100.00
14041;BME280;7095;51.388;6.196;2023-04-25T01:17:40;55018.31;;;-145.32;100.00
14041;BME280;7095;51.388;6.196;2023-04-25T01:20:12;55038.22;;;-145.32;100.00
14041;BME280;7095;51.388;6.196;2023-04-25T01:22:45;55026.28;;;-145.32;100.00
14041;BME280;7095;51.388;6.196;2023-04-25T01:25:14;55030.25;;;-145.32;100.00
14041;BME280;7095;51.388;6.196;2023-04-25T01:27:43;55022.31;;;-145.32;100.00
14041;BME280;7095;51.388;6.196;2023-04-25T01:30:13;55050.16;;;-145.32;100.00
14041;BME280;7095;51.388;6.196;2023-04-25T01:32:42;55058.09;;;-145.32;100.00
14041;BME280;7095;51.388;6.196;2023-04-25T01:35:12;55034.22;;;-145.32;100.00
14041;BME280;7095;51.388;6.196;2023-04-25T01:37:42;54970.59;;;-145.32;100.00
14041;BME280;7095;51.388;6.196;2023-04-25T01:40:12;54970.59;;;-145.32;100.00
14041;BME280;7095;51.388;6.196;2023-04-25T01:42:43;54998.44;;;-145.32;100.00
14041;BME280;7095;51.388;6.196;2023-04-25T01:45:12;54962.63;;;-145.32;100.00
14041;BME280;7095;51.388;6.196;2023-04-25T01:47:41;54962.63;;;-145.32;100.00
14041;BME280;7095;51.388;6.196;2023-04-25T01:50:14;54990.47;;;-145.32;100.00
14041;BME280;7095;51.388;6.196;2023-04-25T01:52:44;55046.16;;;-145.32;100.00
14041;BME280;7095;51.388;6.196;2023-04-25T01:55:13;55097.88;;;-145.32;100.00
14041;BME280;7095;51.388;6.196;2023-04-25T01:57:51;55093.91;;;-145.32;100.00
14041;BME280;7095;51.388;6.196;2023-04-25T02:00:27;55089.94;;;-145.32;100.00
14041;BME280;7095;51.388;6.196;2023-04-25T02:02:57;55145.63;;;-145.32;100.00
14041;BME280;7095;51.388;6.196;2023-04-25T02:05:34;55083.97;;;-145.32;100.00
14041;BME280;7095;51.388;6.196;2023-04-25T02:08:07;55105.84;;;-145.32;100.00
14041;BME280;7095;51.388;6.196;2023-04-25T02:10:36;55089.94;;;-145.32;100.00
14041;BME280;7095;51.388;6.196;2023-04-25T02:13:18;55093.91;;;-145.32;100.00
14041;BME280;7095;51.388;6.196;2023-04-25T02:15:57;55161.53;;;-145.32;100.00
14041;BME280;7095;51.388;6.196;2023-04-25T02:18:26;55187.38;;;-145.32;100.00
14041;BME280;7095;51.388;6.196;2023-04-25T02:20:54;55217.22;;;-145.32;100.00
14041;BME280;7095;51.388;6.196;2023-04-25T02:23:24;55243.09;;;-145.32;100.00
14041;BME280;7095;51.388;6.196;2023-04-25T02:25:53;55227.16;;;-145.32;100.00
14041;BME280;7095;51.388;6.196;2023-04-25T02:28:23;55259.00;;;-145.32;100.00
14041;BME280;7095;51.388;6.196;2023-04-25T02:30:52;55235.13;;;-145.32;100.00
14041;BME280;7095;51.388;6.196;2023-04-25T02:33:20;55288.84;;;-145.32;100.00
14041;BME280;7095;51.388;6.196;2023-04-25T02:35:49;55257.00;;;-145.32;100.00
14041;BME280;7095;51.388;6.196;2023-04-25T02:38:17;55338.56;;;-145.32;100.00
14041;BME280;7095;51.388;6.196;2023-04-25T02:40:47;55350.50;;;-145.32;100.00
14041;BME280;7095;51.388;6.196;2023-04-25T02:43:15;55376.34;;;-145.32;100.00
14041;BME280;7095;51.388;6.196;2023-04-25T02:45:43;55390.28;;;-145.32;100.00
14041;BME280;7095;51.388;6.196;2023-04-25T02:48:12;55346.50;;;-145.32;100.00
14041;BME280;7095;51.388;6.196;2023-04-25T02:50:40;55354.47;;;-145.32;100.00
14041;BME280;7095;51.388;6.196;2023-04-25T02:53:09;55406.19;;;-145.32;100.00
14041;BME280;7095;51.388;6.196;2023-04-25T02:55:44;55529.53;;;-145.32;100.00
14041;BME280;7095;51.388;6.196;2023-04-25T02:58:16;55627.00;;;-145.32;100.00
14041;BME280;7095;51.388;6.196;2023-04-25T03:00:50;55798.09;;;-145.32;100.00
14041;BME280;7095;51.388;6.196;2023-04-25T03:03:19;55859.75;;;-145.32;100.00
14041;BME280;7095;51.388;6.196;2023-04-25T03:05:50;55945.31;;;-145.32;100.00
14041;BME280;7095;51.388;6.196;2023-04-25T03:08:24;55989.06;;;-145.32;100.00
14041;BME280;7095;51.388;6.196;2023-04-25T03:10:56;55921.44;;;-145.32;100.00
14041;BME280;7095;51.388;6.196;2023-04-25T03:13:27;55937.34;;;-145.32;100.00
14041;BME280;7095;51.388;6.196;2023-04-25T03:15:57;55877.66;;;-145.32;100.00
14041;BME280;7095;51.388;6.196;2023-04-25T03:18:25;55921.44;;;-145.32;100.00
14041;BME280;7095;51.388;6.196;2023-04-25T03:20:54;55893.56;;;-145.32;100.00
14041;BME280;7095;51.388;6.196;2023-04-25T03:23:23;55861.75;;;-145.32;100.00
14041;BME280;7095;51.388;6.196;2023-04-25T03:25:52;55877.66;;;-145.32;100.00
14041;BME280;7095;51.388;6.196;2023-04-25T03:28:20;55885.63;;;-145.32;100.00
14041;BME280;7095;51.388;6.196;2023-04-25T03:30:50;55903.53;;;-145.32;100.00
14041;BME280;7095;51.388;6.196;2023-04-25T03:33:18;55905.50;;;-145.32;100.00
14041;BME280;7095;51.388;6.196;2023-04-25T03:35:47;55873.69;;;-145.32;100.00
14041;BME280;7095;51.388;6.196;2023-04-25T03:38:16;55877.66;;;-145.32;100.00
14041;BME280;7095;51.388;6.196;2023-04-25T03:40:45;55939.34;;;-145.32;100.00
14041;BME280;7095;51.388;6.196;2023-04-25T03:43:18;55905.50;;;-145.32;100.00
14041;BME280;7095;51.388;6.196;2023-04-25T03:45:54;56036.81;;;-145.32;100.00
14041;BME280;7095;51.388;6.196;2023-04-25T03:48:25;56032.84;;;-145.32;100.00
14041;BME280;7095;51.388;6.196;2023-04-25T03:50:56;56048.75;;;-145.32;100.00
14041;BME280;7095;51.388;6.196;2023-04-25T03:53:25;56094.50;;;-145.32;100.00
14041;BME280;7095;51.388;6.196;2023-04-25T03:56:25;56253.69;;;-145.32;100.00
14041;BME280;7095;51.388;6.196;2023-04-25T03:59:01;56339.25;;;-145.32;100.00
14041;BME280;7095;51.388;6.196;2023-04-25T04:01:31;56379.03;;;-145.32;100.00
14041;BME280;7095;51.388;6.196;2023-04-25T04:04:00;56480.53;;;-145.32;100.00
14041;BME280;7095;51.388;6.196;2023-04-25T04:06:29;56528.28;;;-145.32;100.00
14041;BME280;7095;51.388;6.196;2023-04-25T04:09:08;56568.06;;;-145.32;100.00
14041;BME280;7095;51.388;6.196;2023-04-25T04:11:39;56613.84;;;-145.32;100.00
14041;BME280;7095;51.388;6.196;2023-04-25T04:14:08;56619.81;;;-145.32;100.00
14041;BME280;7095;51.388;6.196;2023-04-25T04:16:42;56824.78;;;-145.32;100.00
14041;BME280;7095;51.388;6.196;2023-04-25T04:19:12;56978.00;;;-145.32;100.00
14041;BME280;7095;51.388;6.196;2023-04-25T04:21:46;57071.53;;;-145.32;100.00
14041;BME280;7095;51.388;6.196;2023-04-25T04:24:15;57039.69;;;-145.32;100.00
14041;BME280;7095;51.388;6.196;2023-04-25T04:26:50;57087.47;;;-145.32;100.00
14041;BME280;7095;51.388;6.196;2023-04-25T04:29:44;57125.28;;;-145.32;100.00
14041;BME280;7095;51.388;6.196;2023-04-25T04:32:20;57117.31;;;-145.32;100.00
14041;BME280;7095;51.388;6.196;2023-04-25T04:34:50;57145.19;;;-145.32;100.00
14041;BME280;7095;51.388;6.196;2023-04-25T04:37:21;57200.91;;;-145.32;100.00
14041;BME280;7095;51.388;6.196;2023-04-25T04:39:50;57388.00;;;-145.32;100.00
14041;BME280;7095;51.388;6.196;2023-04-25T04:42:39;57419.84;;;-145.32;100.00
14041;BME280;7095;51.388;6.196;2023-04-25T04:45:21;57577.09;;;-145.32;100.00
14041;BME280;7095;51.388;6.196;2023-04-25T04:48:07;57796.03;;;-145.32;100.00
14041;BME280;7095;51.388;6.196;2023-04-25T04:50:54;57656.69;;;-145.32;100.00
14041;BME280;7095;51.388;6.196;2023-04-25T04:53:54;57630.81;;;-145.32;100.00
14041;BME280;7095;51.388;6.196;2023-04-25T04:56:40;57915.47;;;-145.32;100.00
14041;BME280;7095;51.388;6.196;2023-04-25T04:59:40;57202.91;;;-145.32;100.00
14041;BME280;7095;51.388;6.196;2023-04-25T05:02:41;57147.16;;;-145.32;100.00
14041;BME280;7095;51.388;6.196;2023-04-25T05:05:28;57354.16;;;-145.32;100.00
14041;BME280;7095;51.388;6.196;2023-04-25T05:08:22;57312.34;;;-145.32;100.00
14041;BME280;7095;51.388;6.196;2023-04-25T05:11:11;56512.34;;;-145.32;100.00
14041;BME280;7095;51.388;6.196;2023-04-25T05:13:57;56389.00;;;-145.32;100.00
14041;BME280;7095;51.388;6.196;2023-04-25T05:16:40;56633.75;;;-145.32;100.00
14041;BME280;7095;51.388;6.196;2023-04-25T05:19:29;56247.72;;;-145.32;100.00
14041;BME280;7095;51.388;6.196;2023-04-25T05:22:22;56012.94;;;-145.32;100.00
14041;BME280;7095;51.388;6.196;2023-04-25T05:25:09;56422.81;;;-145.32;100.00
14041;BME280;7095;51.388;6.196;2023-04-25T05:27:57;55989.06;;;-145.32;100.00
14041;BME280;7095;51.388;6.196;2023-04-25T05:30:48;56225.84;;;-145.32;100.00
14041;BME280;7095;51.388;6.196;2023-04-25T05:33:20;56108.44;;;-145.32;100.00
14041;BME280;7095;51.388;6.196;2023-04-25T05:35:49;55949.28;;;-145.32;100.00
14041;BME280;7095;51.388;6.196;2023-04-25T05:38:19;55806.03;;;-145.32;100.00
14041;BME280;7095;51.388;6.196;2023-04-25T05:41:17;55855.78;;;-145.32;100.00
14041;BME280;7095;51.388;6.196;2023-04-25T05:43:55;56267.63;;;-145.32;100.00
14041;BME280;7095;51.388;6.196;2023-04-25T05:46:36;56132.31;;;-145.32;100.00
14041;BME280;7095;51.388;6.196;2023-04-25T05:49:25;55963.22;;;-145.32;100.00
14041;BME280;7095;51.388;6.196;2023-04-25T05:51:56;55666.78;;;-145.32;100.00
14041;BME280;7095;51.388;6.196;2023-04-25T05:54:46;55798.09;;;-145.32;100.00
14041;BME280;7095;51.388;6.196;2023-04-25T05:57:20;55943.31;;;-145.32;100.00
14041;BME280;7095;51.388;6.196;2023-04-25T05:59:49;55539.47;;;-145.32;100.00
14041;BME280;7095;51.388;6.196;2023-04-25T06:02:18;55447.97;;;-145.32;100.00
14041;BME280;7095;51.388;6.196;2023-04-25T06:04:49;55266.94;;;-145.32;100.00
14041;BME280;7095;51.388;6.196;2023-04-25T06:07:18;55181.41;;;-145.32;100.00
14041;BME280;7095;51.388;6.196;2023-04-25T06:09:49;55153.56;;;-145.32;100.00
14041;BME280;7095;51.388;6.196;2023-04-25T06:12:18;55169.50;;;-145.32;100.00
14041;BME280;7095;51.388;6.196;2023-04-25T06:14:48;54928.81;;;-145.32;100.00
14041;BME280;7095;51.388;6.196;2023-04-25T06:17:17;54904.94;;;-145.32;100.00
14041;BME280;7095;51.388;6.196;2023-04-25T06:19:48;54895.00;;;-145.32;100.00
14041;BME280;7095;51.388;6.196;2023-04-25T06:22:17;54835.34;;;-145.32;100.00
14041;BME280;7095;51.388;6.196;2023-04-25T06:24:46;54696.13;;;-145.32;100.00
14041;BME280;7095;51.388;6.196;2023-04-25T06:27:15;54640.44;;;-145.32;100.00
14041;BME280;7095;51.388;6.196;2023-04-25T06:29:44;54501.22;;;-145.32;100.00
14041;BME280;7095;51.388;6.196;2023-04-25T06:32:13;54517.16;;;-145.32;100.00
14041;BME280;7095;51.388;6.196;2023-04-25T06:34:42;54533.06;;;-145.32;100.00
14041;BME280;7095;51.388;6.196;2023-04-25T06:37:10;54568.84;;;-145.32;100.00
14041;BME280;7095;51.388;6.196;2023-04-25T06:39:39;54449.53;;;-145.32;100.00
14041;BME280;7095;51.388;6.196;2023-04-25T06:42:07;54431.63;;;-145.32;100.00
14041;BME280;7095;51.388;6.196;2023-04-25T06:44:47;54397.81;;;-145.32;100.00
14041;BME280;7095;51.388;6.196;2023-04-25T06:47:17;54445.56;;;-145.32;100.00
14041;BME280;7095;51.388;6.196;2023-04-25T06:49:45;54322.25;;;-145.32;100.00
14041;BME280;7095;51.388;6.196;2023-04-25T06:52:14;54381.91;;;-145.32;100.00
14041;BME280;7095;51.388;6.196;2023-04-25T06:54:45;54358.06;;;-145.32;100.00
14041;BME280;7095;51.388;6.196;2023-04-25T06:57:26;54318.28;;;-145.32;100.00
14041;BME280;7095;51.388;6.196;2023-04-25T07:00:00;54360.03;;;-145.32;100.00
14041;BME280;7095;51.388;6.196;2023-04-25T07:02:32;54340.16;;;-145.32;100.00
14041;BME280;7095;51.388;6.196;2023-04-25T07:05:02;54248.69;;;-145.32;100.00
14041;BME280;7095;51.388;6.196;2023-04-25T07:07:31;54246.69;;;-145.32;100.00
14041;BME280;7095;51.388;6.196;2023-04-25T07:09:59;54238.75;;;-145.32;100.00
14041;BME280;7095;51.388;6.196;2023-04-25T07:12:28;54202.94;;;-145.32;100.00
14041;BME280;7095;51.388;6.196;2023-04-25T07:14:56;54216.88;;;-145.32;100.00
14041;BME280;7095;51.388;6.196;2023-04-25T07:17:27;54202.94;;;-145.32;100.00
14041;BME280;7095;51.388;6.196;2023-04-25T07:19:56;54210.91;;;-145.32;100.00
14041;BME280;7095;51.388;6.196;2023-04-25T07:22:27;54195.00;;;-145.32;100.00
14041;BME280;7095;51.388;6.196;2023-04-25T07:24:56;54161.19;;;-145.32;100.00
14041;BME280;7095;51.388;6.196;2023-04-25T07:27:26;54093.59;;;-145.32;100.00
14041;BME280;7095;51.388;6.196;2023-04-25T07:30:11;54113.47;;;-145.32;100.00
14041;BME280;7095;51.388;6.196;2023-04-25T07:32:41;54121.41;;;-145.32;100.00
14041;BME280;7095;51.388;6.196;2023-04-25T07:35:10;54123.41;;;-145.32;100.00
14041;BME280;7095;51.388;6.196;2023-04-25T07:37:40;54111.47;;;-145.32;100.00
14041;BME280;7095;51.388;6.196;2023-04-25T07:40:12;54061.78;;;-145.32;100.00
14041;BME280;7095;51.388;6.196;2023-04-25T07:42:46;54127.38;;;-145.32;100.00
14041;BME280;7095;51.388;6.196;2023-04-25T07:45:21;54047.84;;;-145.32;100.00
14041;BME280;7095;51.388;6.196;2023-04-25T07:47:52;54039.91;;;-145.32;100.00
14041;BME280;7095;51.388;6.196;2023-04-25T07:50:21;53992.19;;;-145.32;100.00
14041;BME280;7095;51.388;6.196;2023-04-25T07:52:50;54037.91;;;-145.32;100.00
14041;BME280;7095;51.388;6.196;2023-04-25T07:55:25;54000.13;;;-145.32;100.00
14041;BME280;7095;51.388;6.196;2023-04-25T07:58:08;53958.38;;;-145.32;100.00
14041;BME280;7095;51.388;6.196;2023-04-25T08:00:40;53978.25;;;-145.32;100.00
14041;BME280;7095;51.388;6.196;2023-04-25T08:03:28;53980.25;;;-145.32;100.00
14041;BME280;7095;51.388;6.196;2023-04-25T08:05:58;53976.28;;;-145.32;100.00
14041;BME280;7095;51.388;6.196;2023-04-25T08:08:31;53952.41;;;-145.32;100.00
14041;BME280;7095;51.388;6.196;2023-04-25T08:11:00;53944.47;;;-145.32;100.00
14041;BME280;7095;51.388;6.196;2023-04-25T08:13:29;53964.34;;;-145.32;100.00
14041;BME280;7095;51.388;6.196;2023-04-25T08:15:58;53912.66;;;-145.32;100.00
14041;BME280;7095;51.388;6.196;2023-04-25T08:18:28;53904.69;;;-145.32;100.00
14041;BME280;7095;51.388;6.196;2023-04-25T08:20:58;53896.75;;;-145.32;100.00
14041;BME280;7095;51.388;6.196;2023-04-25T08:23:26;53914.63;;;-145.32;100.00
14041;BME280;7095;51.388;6.196;2023-04-25T08:26:03;53894.75;;;-145.32;100.00
14041;BME280;7095;51.388;6.196;2023-04-25T08:28:36;53916.63;;;-145.32;100.00
14041;BME280;7095;51.388;6.196;2023-04-25T08:31:05;53912.66;;;-145.32;100.00
14041;BME280;7095;51.388;6.196;2023-04-25T08:33:46;53876.84;;;-145.32;100.00
14041;BME280;7095;51.388;6.196;2023-04-25T08:36:27;53872.88;;;-145.32;100.00
14041;BME280;7095;51.388;6.196;2023-04-25T08:39:18;53858.97;;;-145.32;100.00
14041;BME280;7095;51.388;6.196;2023-04-25T08:42:07;53817.22;;;-145.32;100.00
14041;BME280;7095;51.388;6.196;2023-04-25T08:44:37;53821.19;;;-145.32;100.00
14041;BME280;7095;51.388;6.196;2023-04-25T08:47:06;53845.03;;;-145.32;100.00
14041;BME280;7095;51.388;6.196;2023-04-25T08:49:47;53805.28;;;-145.32;100.00
14041;BME280;7095;51.388;6.196;2023-04-25T08:52:21;53819.19;;;-145.32;100.00
14041;BME280;7095;51.388;6.196;2023-04-25T08:54:52;53783.41;;;-145.32;100.00
14041;BME280;7095;51.388;6.196;2023-04-25T08:57:23;53805.28;;;-145.32;100.00
14041;BME280;7095;51.388;6.196;2023-04-25T08:59:52;53801.31;;;-145.32;100.00
14041;BME280;7095;51.388;6.196;2023-04-25T09:02:24;53797.31;;;-145.32;100.00
14041;BME280;7095;51.388;6.196;2023-04-25T09:04:54;53777.44;;;-145.32;100.00
14041;BME280;7095;51.388;6.196;2023-04-25T09:07:24;53797.31;;;-145.32;100.00
14041;BME280;7095;51.388;6.196;2023-04-25T09:09:53;53787.38;;;-145.32;100.00
14041;BME280;7095;51.388;6.196;2023-04-25T09:12:22;53763.53;;;-145.32;100.00
14041;BME280;7095;51.388;6.196;2023-04-25T09:15:03;53769.50;;;-145.32;100.00
14041;BME280;7095;51.388;6.196;2023-04-25T09:18:02;53803.28;;;-145.32;100.00
14041;BME280;7095;51.388;6.196;2023-04-25T09:20:41;53789.38;;;-145.32;100.00
14041;BME280;7095;51.388;6.196;2023-04-25T09:23:14;53801.31;;;-145.32;100.00
14041;BME280;7095;51.388;6.196;2023-04-25T09:25:43;53773.47;;;-145.32;100.00
14041;BME280;7095;51.388;6.196;2023-04-25T09:28:12;53759.56;;;-145.32;100.00
14041;BME280;7095;51.388;6.196;2023-04-25T09:30:42;53771.47;;;-145.32;100.00
14041;BME280;7095;51.388;6.196;2023-04-25T09:33:16;53789.38;;;-145.32;100.00
14041;BME280;7095;51.388;6.196;2023-04-25T09:35:49;53773.47;;;-145.32;100.00
14041;BME280;7095;51.388;6.196;2023-04-25T09:38:43;53797.31;;;-145.32;100.00
14041;BME280;7095;51.388;6.196;2023-04-25T09:41:23;53765.50;;;-145.32;100.00
14041;BME280;7095;51.388;6.196;2023-04-25T09:43:57;53759.56;;;-145.32;100.00
14041;BME280;7095;51.388;6.196;2023-04-25T09:46:33;53745.63;;;-145.32;100.00
14041;BME280;7095;51.388;6.196;2023-04-25T09:49:08;53765.50;;;-145.32;100.00
14041;BME280;7095;51.388;6.196;2023-04-25T09:51:55;53713.81;;;-145.32;100.00
14041;BME280;7095;51.388;6.196;2023-04-25T09:54:28;53693.94;;;-145.32;100.00
14041;BME280;7095;51.388;6.196;2023-04-25T09:57:14;53699.91;;;-145.32;100.00
14041;BME280;7095;51.388;6.196;2023-04-25T09:59:44;53725.75;;;-145.32;92.56
14041;BME280;7095;51.388;6.196;2023-04-25T10:02:14;53697.91;;;-145.32;85.01
14041;BME280;7095;51.388;6.196;2023-04-25T10:04:48;53686.00;;;-145.32;75.89
14041;BME280;7095;51.388;6.196;2023-04-25T10:07:27;53725.75;;;-145.32;85.76
14041;BME280;7095;51.388;6.196;2023-04-25T10:09:59;53715.81;;;-145.32;93.96
14041;BME280;7095;51.388;6.196;2023-04-25T10:12:30;53745.63;;;-145.32;91.51
14041;BME280;7095;51.388;6.196;2023-04-25T10:14:59;53711.84;;;-145.32;96.15
14041;BME280;7095;51.388;6.196;2023-04-25T10:17:28;53709.84;;;-145.32;91.36
14041;BME280;7095;51.388;6.196;2023-04-25T10:19:57;53701.88;;;-145.32;81.02
14041;BME280;7095;51.388;6.196;2023-04-25T10:22:32;53693.94;;;-145.32;73.40
14041;BME280;7095;51.388;6.196;2023-04-25T10:25:03;53693.94;;;-145.32;82.34
14041;BME280;7095;51.388;6.196;2023-04-25T10:27:32;53664.13;;;-145.32;77.38
14041;BME280;7095;51.388;6.196;2023-04-25T10:30:02;53687.97;;;-145.32;74.14
14041;BME280;7095;51.388;6.196;2023-04-25T10:32:33;53682.00;;;-145.32;71.19
14041;BME280;7095;51.388;6.196;2023-04-25T10:35:13;53658.16;;;-145.32;62.40
14041;BME280;7095;51.388;6.196;2023-04-25T10:38:02;53656.16;;;-145.32;70.39
14041;BME280;7095;51.388;6.196;2023-04-25T10:40:32;53686.00;;;-145.32;72.77
14041;BME280;7095;51.388;6.196;2023-04-25T10:43:35;53680.03;;;-145.32;61.75
14041;BME280;7095;51.388;6.196;2023-04-25T10:46:13;53721.78;;;-145.32;62.12
14041;BME280;7095;51.388;6.196;2023-04-25T10:48:47;53684.00;;;-145.32;61.98
14041;BME280;7095;51.388;6.196;2023-04-25T10:51:20;53739.66;;;-145.32;63.20
14041;BME280;7095;51.388;6.196;2023-04-25T10:54:01;53711.84;;;-145.32;68.84
14041;BME280;7095;51.388;6.196;2023-04-25T10:56:31;53731.72;;;-145.32;67.57
14041;BME280;7095;51.388;6.196;2023-04-25T10:59:04;53721.78;;;-145.32;68.32
14041;BME280;7095;51.388;6.196;2023-04-25T11:01:36;53755.56;;;-145.32;71.83
14041;BME280;7095;51.388;6.196;2023-04-25T11:04:06;53725.75;;;-145.32;74.87
14041;BME280;7095;51.388;6.196;2023-04-25T11:06:44;53769.50;;;-145.32;76.58
14041;BME280;7095;51.388;6.196;2023-04-25T11:09:19;53773.47;;;-145.32;77.38
14041;BME280;7095;51.388;6.196;2023-04-25T11:11:53;53775.47;;;-145.32;72.26
14041;BME280;7095;51.388;6.196;2023-04-25T11:14:22;53757.56;;;-145.32;79.50
14041;BME280;7095;51.388;6.196;2023-04-25T11:16:53;53733.69;;;-145.32;69.46
14041;BME280;7095;51.388;6.196;2023-04-25T11:19:26;53729.72;;;-145.32;72.99
14041;BME280;7095;51.388;6.196;2023-04-25T11:21:55;53717.78;;;-145.32;70.09
14041;BME280;7095;51.388;6.196;2023-04-25T11:24:27;53715.81;;;-145.32;65.94
14041;BME280;7095;51.388;6.196;2023-04-25T11:26:57;53699.91;;;-145.32;62.89
14041;BME280;7095;51.388;6.196;2023-04-25T11:29:26;53717.78;;;-145.32;60.47
14041;BME280;7095;51.388;6.196;2023-04-25T11:31:55;53703.88;;;-145.32;59.82
14041;BME280;7095;51.388;6.196;2023-04-25T11:34:25;53719.78;;;-145.32;61.13
14041;BME280;7095;51.388;6.196;2023-04-25T11:36:54;53713.81;;;-145.32;60.02
14041;BME280;7095;51.388;6.196;2023-04-25T11:39:24;53686.00;;;-145.32;55.33
14041;BME280;7095;51.388;6.196;2023-04-25T11:41:55;53684.00;;;-145.32;58.37
14041;BME280;7095;51.388;6.196;2023-04-25T11:44:24;53658.16;;;-145.32;63.08
14041;BME280;7095;51.388;6.196;2023-04-25T11:46:52;53652.19;;;-145.32;61.09
14041;BME280;7095;51.388;6.196;2023-04-25T11:49:21;53626.34;;;-145.32;59.31
14041;BME280;7095;51.388;6.196;2023-04-25T11:51:49;53634.28;;;-145.32;58.58
14041;BME280;7095;51.388;6.196;2023-04-25T11:54:18;53594.53;;;-145.32;58.20
14041;BME280;7095;51.388;6.196;2023-04-25T11:56:46;53534.88;;;-145.32;53.08
14041;BME280;7095;51.388;6.196;2023-04-25T11:59:16;53602.47;;;-145.32;50.51
14041;BME280;7095;51.388;6.196;2023-04-25T12:01:48;53630.31;;;-145.32;54.43
14041;BME280;7095;51.388;6.196;2023-04-25T12:04:21;53717.78;;;-145.32;58.40
14041;BME280;7095;51.388;6.196;2023-04-25T12:06:51;53666.09;;;-145.32;65.18
14041;BME280;7095;51.388;6.196;2023-04-25T12:09:21;53689.97;;;-145.32;65.19
14041;BME280;7095;51.388;6.196;2023-04-25T12:11:57;53729.72;;;-145.32;67.84
14041;BME280;7095;51.388;6.196;2023-04-25T12:14:29;53723.75;;;-145.32;74.00
14041;BME280;7095;51.388;6.196;2023-04-25T12:16:59;53737.69;;;-145.32;75.65
14041;BME280;7095;51.388;6.196;2023-04-25T12:19:32;53753.59;;;-145.32;74.57
14041;BME280;7095;51.388;6.196;2023-04-25T12:22:02;53711.84;;;-145.32;77.15
14041;BME280;7095;51.388;6.196;2023-04-25T12:24:34;53741.66;;;-145.32;79.74
14041;BME280;7095;51.388;6.196;2023-04-25T12:27:06;53781.41;;;-145.32;81.24
14041;BME280;7095;51.388;6.196;2023-04-25T12:29:37;53723.75;;;-145.32;83.82
14041;BME280;7095;51.388;6.196;2023-04-25T12:32:15;53725.75;;;-145.32;79.27
14041;BME280;7095;51.388;6.196;2023-04-25T12:34:44;53703.88;;;-145.32;81.50
14041;BME280;7095;51.388;6.196;2023-04-25T12:37:13;53695.94;;;-145.32;80.11
14041;BME280;7095;51.388;6.196;2023-04-25T12:39:42;53701.88;;;-145.32;79.25
14041;BME280;7095;51.388;6.196;2023-04-25T12:42:10;53741.66;;;-145.32;75.41
14041;BME280;7095;51.388;6.196;2023-04-25T12:44:41;53686.00;;;-145.32;72.83
14041;BME280;7095;51.388;6.196;2023-04-25T12:47:09;53666.09;;;-145.32;74.85
14041;BME280;7095;51.388;6.196;2023-04-25T12:49:38;53654.19;;;-145.32;73.67
14041;BME280;7095;51.388;6.196;2023-04-25T12:52:07;53674.06;;;-145.32;71.64
14041;BME280;7095;51.388;6.196;2023-04-25T12:54:35;53650.19;;;-145.32;58.58
14041;BME280;7095;51.388;6.196;2023-04-25T12:57:04;53612.44;;;-145.32;60.23
14041;BME280;7095;51.388;6.196;2023-04-25T12:59:32;53600.50;;;-145.32;57.14
14041;BME280;7095;51.388;6.196;2023-04-25T13:02:02;53646.22;;;-145.32;56.07
14041;BME280;7095;51.388;6.196;2023-04-25T13:04:31;53652.19;;;-145.32;55.86
14041;BME280;7095;51.388;6.196;2023-04-25T13:07:00;53630.31;;;-145.32;56.57
14041;BME280;7095;51.388;6.196;2023-04-25T13:09:29;53578.63;;;-145.32;54.96
14041;BME280;7095;51.388;6.196;2023-04-25T13:11:57;53572.66;;;-145.32;54.92